createdAt,value
2023-03-06T00:00:50.040Z,99280.75
2023-03-06T00:05:51.497Z,99283.75
2023-03-06T00:10:53.596Z,99282.28
2023-03-06T00:15:58.839Z,99279.63
2023-03-06T00:21:00.412Z,99274.41
2023-03-06T00:26:02.076Z,99277.72
2023-03-06T00:31:04.150Z,99279.28
2023-03-06T00:36:06.327Z,99269.50
2023-03-06T00:41:10.515Z,99261.44
2023-03-06T00:46:12.044Z,99261.78
2023-03-06T00:51:14.116Z,99265.06
2023-03-06T00:56:15.660Z,99243.59
2023-03-06T01:01:17.276Z,99237.22
2023-03-06T01:06:18.825Z,99237.22
2023-03-06T01:11:20.472Z,99232.78
2023-03-06T01:16:22.259Z,99230.28
2023-03-06T01:21:23.712Z,99223.19
2023-03-06T01:26:25.230Z,99213.25
2023-03-06T01:31:26.844Z,99211.84
2023-03-06T01:36:28.487Z,99202.78
2023-03-06T01:41:30.234Z,99202.00
2023-03-06T01:46:41.805Z,99200.69
2023-03-06T01:52:07.363Z,99195.31
2023-03-06T01:57:14.805Z,99199.13
2023-03-06T02:02:16.448Z,99192.25
2023-03-06T02:07:20.273Z,99178.53
2023-03-06T02:12:22.115Z,99192.09
2023-03-06T02:17:24.297Z,99176.53
2023-03-06T02:22:36.083Z,99170.59
2023-03-06T02:27:37.718Z,99172.06
2023-03-06T02:32:39.177Z,99161.59
2023-03-06T02:37:40.953Z,99150.47
2023-03-06T02:42:50.666Z,99143.94
2023-03-06T02:47:52.100Z,99132.63
2023-03-06T02:52:53.568Z,99134.19
2023-03-06T02:57:55.028Z,99117.13
2023-03-06T03:02:56.711Z,99122.88
2023-03-06T03:07:58.621Z,99119.09
2023-03-06T03:13:00.110Z,99108.44
2023-03-06T03:18:01.591Z,99096.94
2023-03-06T03:23:03.712Z,99080.97
2023-03-06T03:28:05.169Z,99083.81
2023-03-06T03:33:07.075Z,99082.53
2023-03-06T03:38:08.595Z,99081.50
2023-03-06T03:43:10.052Z,99073.09
2023-03-06T03:48:11.974Z,99072.19
2023-03-06T03:53:13.721Z,99061.22
2023-03-06T03:58:15.701Z,99059.44
2023-03-06T04:03:17.310Z,99053.97
2023-03-06T04:08:18.707Z,99048.53
2023-03-06T04:13:22.255Z,99037.81
2023-03-06T04:18:24.013Z,99035.91
2023-03-06T04:23:26.343Z,99025.25
2023-03-06T04:28:27.799Z,99030.47
2023-03-06T04:33:29.302Z,99025.00
2023-03-06T04:38:30.945Z,99020.84
2023-03-06T04:43:32.469Z,99015.88
2023-03-06T04:48:36.623Z,99009.38
2023-03-06T04:53:38.149Z,99007.41
2023-03-06T04:58:39.631Z,99007.06
2023-03-06T05:03:41.095Z,99015.97
2023-03-06T05:08:42.550Z,99004.44
2023-03-06T05:13:44.123Z,98999.16
2023-03-06T05:18:45.630Z,98992.56
2023-03-06T05:23:47.570Z,98989.13
2023-03-06T05:28:49.049Z,98994.66
2023-03-06T05:33:50.457Z,99003.19
2023-03-06T05:38:52.011Z,98999.41
2023-03-06T05:43:53.677Z,98994.38
2023-03-06T05:48:56.198Z,98987.41
2023-03-06T05:53:57.953Z,98991.78
2023-03-06T05:58:59.387Z,98993.50
2023-03-06T06:04:00.831Z,98976.25
2023-03-06T06:09:02.228Z,98994.41
2023-03-06T06:14:03.661Z,99000.66
2023-03-06T06:19:05.115Z,98996.31
2023-03-06T06:24:06.773Z,98993.19
2023-03-06T06:29:08.561Z,99000.06
2023-03-06T06:34:11.009Z,99009.31
2023-03-06T06:39:16.138Z,99011.44
2023-03-06T06:44:18.466Z,99011.59
2023-03-06T06:49:19.955Z,99007.63
2023-03-06T06:54:22.323Z,99011.31
2023-03-06T06:59:23.994Z,99007.72
2023-03-06T07:04:25.454Z,99007.09
2023-03-06T07:09:26.955Z,99006.69
2023-03-06T07:14:28.405Z,99000.06
2023-03-06T07:19:29.851Z,99013.00
2023-03-06T07:24:31.331Z,99013.72
2023-03-06T07:29:34.438Z,99014.59
2023-03-06T07:34:35.918Z,99019.25
2023-03-06T07:39:37.361Z,99031.66
2023-03-06T07:44:38.891Z,99027.94
2023-03-06T07:49:40.316Z,99031.34
2023-03-06T07:54:42.043Z,99031.25
2023-03-06T07:59:43.517Z,99027.44
2023-03-06T08:04:44.999Z,99027.28
2023-03-06T08:09:46.438Z,99031.13
2023-03-06T08:14:47.917Z,99033.69
2023-03-06T08:19:49.367Z,99031.94
2023-03-06T08:24:55.003Z,99033.56
2023-03-06T08:29:56.482Z,99028.97
2023-03-06T08:34:57.969Z,99034.50
2023-03-06T08:39:59.527Z,99027.81
2023-03-06T08:45:01.004Z,99025.00
2023-03-06T08:50:02.515Z,99034.28
2023-03-06T08:55:04.193Z,99039.63
2023-03-06T09:00:09.063Z,99038.53
2023-03-06T09:05:11.076Z,99032.16
2023-03-06T09:10:17.841Z,99037.03
2023-03-06T09:15:21.114Z,99034.94
2023-03-06T09:20:22.801Z,99034.53
2023-03-06T09:25:25.082Z,99035.03
2023-03-06T09:30:26.548Z,99019.00
2023-03-06T09:35:28.077Z,99023.78
2023-03-06T09:40:55.741Z,99025.88
2023-03-06T09:45:59.912Z,99017.00
2023-03-06T09:51:10.662Z,99016.59
2023-03-06T09:56:20.342Z,99017.72
2023-03-06T10:01:29.549Z,99013.63
2023-03-06T10:06:36.817Z,99015.69
2023-03-06T10:11:46.847Z,99008.88
2023-03-06T10:16:48.529Z,99007.78
2023-03-06T10:21:58.508Z,98992.53
2023-03-06T10:27:12.703Z,98988.88
2023-03-06T10:32:34.277Z,98976.34
2023-03-06T10:37:41.124Z,98988.91
2023-03-06T10:42:42.626Z,98995.59
2023-03-06T10:47:44.187Z,98972.22
2023-03-06T10:52:57.865Z,98967.09
2023-03-06T10:58:18.376Z,98960.69
2023-03-06T11:03:24.481Z,98959.50
2023-03-06T11:08:26.029Z,98952.16
2023-03-06T11:13:30.617Z,98950.22
2023-03-06T11:18:38.440Z,98941.53
2023-03-06T11:23:47.206Z,98943.25
2023-03-06T11:29:08.933Z,98935.22
2023-03-06T11:34:51.673Z,98939.66
2023-03-06T11:40:02.826Z,98935.63
2023-03-06T11:45:04.399Z,98938.25
2023-03-06T11:50:24.723Z,98928.63
2023-03-06T11:55:44.183Z,98927.97
2023-03-06T12:01:14.620Z,98923.72
2023-03-06T12:06:45.826Z,98911.91
2023-03-06T12:12:20.859Z,98920.09
2023-03-06T12:17:28.248Z,98900.69
2023-03-06T12:22:53.384Z,98895.34
2023-03-06T12:28:23.122Z,98899.75
2023-03-06T12:33:30.538Z,98892.22
2023-03-06T12:39:01.206Z,98891.63
2023-03-06T12:44:05.631Z,98887.28
2023-03-06T12:49:31.492Z,98883.13
2023-03-06T12:54:38.635Z,98874.44
2023-03-06T12:59:48.583Z,98880.06
2023-03-06T13:05:28.688Z,98874.84
2023-03-06T13:10:35.852Z,98869.50
2023-03-06T13:15:39.048Z,98863.72
2023-03-06T13:20:42.903Z,98863.78
2023-03-06T13:25:50.363Z,98845.06
2023-03-06T13:30:53.277Z,98861.44
2023-03-06T13:35:56.890Z,98852.13
2023-03-06T13:41:23.011Z,98856.28
2023-03-06T13:46:35.060Z,98862.47
2023-03-06T13:52:10.516Z,98872.34
2023-03-06T13:57:21.290Z,98874.78
2023-03-06T14:02:54.764Z,98875.50
2023-03-06T14:08:07.508Z,98859.06
2023-03-06T14:13:23.319Z,98855.06
2023-03-06T14:18:47.746Z,98840.50
2023-03-06T14:24:00.421Z,98842.94
2023-03-06T14:29:03.123Z,98837.09
2023-03-06T14:34:15.924Z,98838.03
2023-03-06T14:39:43.962Z,98829.06
2023-03-06T14:44:47.284Z,98835.25
2023-03-06T14:50:43.818Z,98826.53
2023-03-06T14:55:53.166Z,98820.78
2023-03-06T15:00:56.249Z,98822.22
2023-03-06T15:05:58.048Z,98814.91
2023-03-06T15:11:06.092Z,98812.97
2023-03-06T15:16:13.433Z,98814.16
2023-03-06T15:21:18.744Z,98799.75
2023-03-06T15:26:29.539Z,98809.56
2023-03-06T15:31:33.026Z,98805.56
2023-03-06T15:36:43.060Z,98821.28
2023-03-06T15:41:44.957Z,98821.25
2023-03-06T15:46:47.293Z,98819.34
2023-03-06T15:51:49.940Z,98823.44
2023-03-06T15:56:52.148Z,98826.25
2023-03-06T16:01:54.202Z,98815.66
2023-03-06T16:06:55.673Z,98823.69
2023-03-06T16:11:57.265Z,98819.66
2023-03-06T16:16:59.572Z,98820.66
2023-03-06T16:22:01.030Z,98814.44
2023-03-06T16:27:02.860Z,98824.31
2023-03-06T16:32:05.433Z,98824.63
2023-03-06T16:37:11.375Z,98824.25
2023-03-06T16:42:12.935Z,98826.72
2023-03-06T16:47:14.426Z,98830.97
2023-03-06T16:52:16.272Z,98827.22
2023-03-06T16:57:17.700Z,98828.28
2023-03-06T17:02:19.170Z,98837.91
2023-03-06T17:07:20.593Z,98841.09
2023-03-06T17:12:21.998Z,98843.88
2023-03-06T17:17:23.460Z,98835.72
2023-03-06T17:22:25.444Z,98851.78
2023-03-06T17:27:26.895Z,98848.13
2023-03-06T17:32:28.830Z,98840.94
2023-03-06T17:37:31.955Z,98845.53
2023-03-06T17:42:35.280Z,98846.00
2023-03-06T17:47:36.856Z,98846.47
2023-03-06T17:52:38.974Z,98854.63
2023-03-06T17:57:40.414Z,98850.50
2023-03-06T18:02:41.900Z,98850.09
2023-03-06T18:07:43.894Z,98858.47
2023-03-06T18:12:45.466Z,98856.03
2023-03-06T18:17:46.999Z,98858.34
2023-03-06T18:22:48.448Z,98861.25
2023-03-06T18:27:49.865Z,98859.78
2023-03-06T18:32:51.322Z,98863.94
2023-03-06T18:37:52.791Z,98875.31
2023-03-06T18:42:54.765Z,98867.75
2023-03-06T18:47:56.264Z,98876.28
2023-03-06T18:52:57.747Z,98869.72
2023-03-06T18:57:59.252Z,98872.16
2023-03-06T19:03:00.681Z,98872.78
2023-03-06T19:08:02.101Z,98875.22
2023-03-06T19:13:04.628Z,98878.19
2023-03-06T19:18:06.054Z,98873.97
2023-03-06T19:23:08.007Z,98868.19
2023-03-06T19:28:09.459Z,98875.16
2023-03-06T19:33:10.869Z,98879.88
2023-03-06T19:38:12.504Z,98880.09
2023-03-06T19:43:13.931Z,98882.94
2023-03-06T19:48:16.147Z,98876.91
2023-03-06T19:53:17.684Z,98885.06
2023-03-06T19:58:19.114Z,98884.75
2023-03-06T20:03:20.568Z,98886.91
2023-03-06T20:08:21.980Z,98903.53
2023-03-06T20:13:23.650Z,98912.91
2023-03-06T20:18:25.146Z,98907.06
2023-03-06T20:23:27.524Z,98911.66
2023-03-06T20:28:29.013Z,98903.59
2023-03-06T20:33:30.427Z,98910.63
2023-03-06T20:38:31.904Z,98901.44
2023-03-06T20:43:33.311Z,98912.03
2023-03-06T20:48:34.948Z,98901.88
2023-03-06T20:53:36.628Z,98905.28
2023-03-06T20:58:38.085Z,98907.66
2023-03-06T21:03:39.531Z,98901.88
2023-03-06T21:08:41.102Z,98908.09
2023-03-06T21:13:42.898Z,98914.50
2023-03-06T21:18:45.299Z,98908.84
2023-03-06T21:23:48.018Z,98899.63
2023-03-06T21:28:49.847Z,98895.81
2023-03-06T21:33:51.747Z,98899.13
2023-03-06T21:38:54.214Z,98895.28
2023-03-06T21:43:57.284Z,98903.16
2023-03-06T21:48:59.142Z,98893.34
2023-03-06T21:54:02.013Z,98895.06
2023-03-06T21:59:03.454Z,98899.13
2023-03-06T22:04:04.891Z,98891.22
2023-03-06T22:09:06.707Z,98891.84
2023-03-06T22:14:08.266Z,98893.34
2023-03-06T22:19:09.719Z,98889.13
2023-03-06T22:24:11.149Z,98884.72
2023-03-06T22:29:12.571Z,98887.38
2023-03-06T22:34:13.990Z,98882.47
2023-03-06T22:39:15.412Z,98893.78
2023-03-06T22:44:19.183Z,98875.22
2023-03-06T22:49:20.694Z,98886.88
2023-03-06T22:54:22.232Z,98889.34
2023-03-06T22:59:23.698Z,98879.75
2023-03-06T23:04:25.159Z,98885.94
2023-03-06T23:09:26.882Z,98883.34
2023-03-06T23:14:28.383Z,98880.38
2023-03-06T23:19:29.863Z,98878.44
2023-03-06T23:24:34.819Z,98883.78
2023-03-06T23:29:37.650Z,98888.06
2023-03-06T23:34:39.124Z,98887.63
2023-03-06T23:39:40.550Z,98887.84
2023-03-06T23:44:42.012Z,98889.97
2023-03-06T23:49:43.599Z,98880.91
2023-03-06T23:54:45.041Z,98892.22
2023-03-06T23:59:46.577Z,98881.34
